Time;durP1;ratioP1;P1;durP2;ratioP2;P2;SDS_P1;SDS_P2;PMS_P1;PMS_P2;Temp;Humidity;BMP_temperature;BMP_pressure;BME280_temperature;BME280_humidity;BME280_pressure;Samples;Min_cycle;Max_cycle;Signal;HPM_P1;HPM_P2
2022/05/12 00:01:36;;;;;;;2.58;1.37;;;25.30;32.20;;;;;;2524960;54;21002;-85
2022/05/12 00:04:02;;;;;;;3.08;1.50;;;25.20;32.30;;;;;;2299269;55;21145;-82
2022/05/12 00:06:28;;;;;;;3.97;1.37;;;25.30;32.30;;;;;;2503577;54;20978;-83
2022/05/12 00:08:54;;;;;;;4.80;1.62;;;25.30;32.40;;;;;;2297956;55;20972;-86
2022/05/12 00:11:21;;;;;;;5.03;1.85;;;25.30;33.10;;;;;;2510979;54;21058;-83
2022/05/12 00:13:47;;;;;;;2.30;1.20;;;25.30;32.50;;;;;;2287785;55;20954;-83
2022/05/12 00:16:13;;;;;;;3.25;1.40;;;25.40;32.60;;;;;;2519602;54;21006;-84
2022/05/12 00:18:40;;;;;;;3.30;1.67;;;25.30;32.60;;;;;;2518268;54;20955;-84
2022/05/12 00:21:06;;;;;;;3.75;1.30;;;25.30;32.60;;;;;;2294045;55;20958;-84
2022/05/12 00:23:32;;;;;;;2.35;1.25;;;25.30;32.60;;;;;;2289457;55;21733;-86
2022/05/12 00:25:58;;;;;;;3.58;1.40;;;25.30;32.70;;;;;;2523580;54;20944;-86
2022/05/12 00:28:25;;;;;;;2.75;1.42;;;25.20;32.70;;;;;;2281140;55;20974;-85
2022/05/12 00:30:53;;;;;;;2.72;1.20;;;25.20;32.80;;;;;;2521404;54;20922;-86
2022/05/12 00:33:20;;;;;;;3.45;1.50;;;25.10;32.70;;;;;;2524886;54;20917;-82
2022/05/12 00:35:46;;;;;;;4.12;1.50;;;25.20;32.90;;;;;;2300254;55;21947;-84
2022/05/12 00:38:12;;;;;;;3.17;1.25;;;25.20;32.90;;;;;;2518524;54;20970;-84
2022/05/12 00:40:40;;;;;;;3.08;1.23;;;25.20;32.90;;;;;;2289707;55;20918;-83
2022/05/12 00:43:08;;;;;;;2.22;1.17;;;25.20;33.00;;;;;;2520089;55;21531;-86
2022/05/12 00:45:36;;;;;;;2.60;1.08;;;25.20;33.10;;;;;;2297494;55;20973;-85
2022/05/12 00:48:03;;;;;;;2.75;1.17;;;25.10;33.00;;;;;;2507203;54;20942;-82
2022/05/12 00:50:38;;;;;;;2.47;1.00;;;25.10;33.10;;;;;;2521837;55;20962;-85
2022/05/12 00:53:05;;;;;;;3.70;0.98;;;25.20;33.90;;;;;;2289071;55;21429;-85
2022/05/12 00:55:34;;;;;;;2.83;1.27;;;25.10;33.10;;;;;;2522231;55;20899;-84
2022/05/12 00:58:00;;;;;;;3.72;1.20;;;25.20;33.20;;;;;;2290553;55;21193;-87
2022/05/12 01:00:27;;;;;;;2.05;0.80;;;25.10;33.10;;;;;;2522248;54;20974;-85
2022/05/12 01:02:56;;;;;;;2.80;1.17;;;25.10;33.20;;;;;;2289096;55;20979;-84
2022/05/12 01:05:23;;;;;;;2.67;1.30;;;25.10;33.20;;;;;;2274332;55;20911;-83
2022/05/12 01:07:51;;;;;;;2.28;0.98;;;25.20;33.30;;;;;;2526152;54;20977;-85
2022/05/12 01:10:18;;;;;;;3.03;1.10;;;25.10;33.30;;;;;;2522062;54;20931;-85
2022/05/12 01:12:46;;;;;;;3.53;1.15;;;25.10;33.30;;;;;;2294595;55;20928;-85
2022/05/12 01:15:12;;;;;;;2.45;1.10;;;25.20;33.40;;;;;;2294994;55;20931;-86
2022/05/12 01:17:38;;;;;;;2.55;1.23;;;25.10;33.40;;;;;;2525247;54;20891;-84
2022/05/12 01:20:05;;;;;;;4.37;1.17;;;25.10;33.40;;;;;;2521514;54;20979;-85
2022/05/12 01:22:45;;;;;;;4.15;1.20;;;25.10;33.40;;;;;;2521684;54;20984;-85
2022/05/12 01:25:13;;;;;;;2.33;1.12;;;25.10;33.60;;;;;;2291582;55;20919;-87
2022/05/12 01:27:42;;;;;;;3.92;1.30;;;25.10;33.50;;;;;;2289064;55;20966;-84
2022/05/12 01:30:09;;;;;;;2.05;1.05;;;25.10;33.40;;;;;;2523380;54;21032;-85
2022/05/12 01:32:35;;;;;;;2.45;1.00;;;25.10;33.50;;;;;;2291452;55;20935;-84
2022/05/12 01:35:01;;;;;;;4.12;1.20;;;25.10;33.50;;;;;;2289748;55;20990;-84
2022/05/12 01:37:27;;;;;;;2.85;1.30;;;25.10;33.50;;;;;;2275084;55;20990;-84
2022/05/12 01:39:54;;;;;;;2.47;1.02;;;25.10;33.50;;;;;;2522079;55;20990;-84
2022/05/12 01:42:20;;;;;;;2.55;1.15;;;25.10;33.60;;;;;;2524807;54;20943;-84
2022/05/12 01:44:46;;;;;;;2.20;1.02;;;25.10;33.60;;;;;;2273678;55;20967;-85
2022/05/12 01:47:12;;;;;;;2.78;1.00;;;25.00;33.50;;;;;;2289265;55;21360;-85
2022/05/12 01:49:39;;;;;;;2.75;1.20;;;25.00;33.60;;;;;;2289328;55;21441;-86
2022/05/12 01:52:06;;;;;;;2.10;1.00;;;25.00;33.60;;;;;;2522173;54;21421;-82
2022/05/12 01:54:32;;;;;;;3.10;1.25;;;25.00;34.30;;;;;;2522931;55;20906;-82
2022/05/12 01:56:58;;;;;;;2.20;1.00;;;25.00;33.70;;;;;;2524711;54;20948;-82
2022/05/12 01:59:24;;;;;;;2.33;1.23;;;25.00;33.70;;;;;;2521786;54;21515;-85
2022/05/12 02:01:51;;;;;;;2.30;0.90;;;25.00;33.70;;;;;;2290175;55;20950;-84
2022/05/12 02:04:17;;;;;;;2.80;1.10;;;25.00;33.80;;;;;;2522689;54;21042;-87
2022/05/12 02:06:43;;;;;;;2.10;0.93;;;25.00;33.80;;;;;;2522099;54;20998;-85
2022/05/12 02:09:10;;;;;;;3.62;1.02;;;25.00;33.80;;;;;;2523244;54;20976;-87
2022/05/12 02:11:36;;;;;;;2.10;1.00;;;24.90;33.70;;;;;;2525863;54;20915;-84
2022/05/12 02:14:04;;;;;;;3.25;1.35;;;24.90;33.80;;;;;;2523849;54;21017;-84
2022/05/12 02:16:33;;;;;;;2.67;1.05;;;24.90;33.80;;;;;;2526374;54;20973;-84
2022/05/12 02:19:01;;;;;;;2.25;0.80;;;24.80;33.80;;;;;;2523298;54;20946;-84
2022/05/12 02:21:28;;;;;;;2.55;0.95;;;24.80;33.90;;;;;;2517969;54;21047;-86
2022/05/12 02:23:54;;;;;;;4.40;1.00;;;24.80;33.90;;;;;;2281556;55;21526;-86
2022/05/12 02:26:21;;;;;;;5.45;1.17;;;24.80;34.00;;;;;;2523628;54;20919;-88
2022/05/12 02:28:47;;;;;;;2.35;0.88;;;24.70;34.00;;;;;;2295306;55;21008;-86
2022/05/12 02:31:15;;;;;;;2.45;1.10;;;24.70;34.00;;;;;;2285152;55;21019;-85
2022/05/12 02:33:42;;;;;;;2.08;0.80;;;24.60;34.10;;;;;;2514407;54;21026;-87
2022/05/12 02:36:08;;;;;;;3.97;1.30;;;24.60;34.10;;;;;;2520338;54;20938;-88
2022/05/12 02:38:34;;;;;;;4.75;1.00;;;24.60;34.20;;;;;;2295771;55;21004;-84
2022/05/12 02:41:00;;;;;;;2.28;1.15;;;24.50;34.10;;;;;;2289910;55;20926;-86
2022/05/12 02:43:29;;;;;;;2.10;1.00;;;24.60;34.40;;;;;;2289843;55;20947;-84
2022/05/12 02:45:57;;;;;;;1.70;0.80;;;24.50;34.40;;;;;;2288648;55;20915;-83
2022/05/12 02:48:28;;;;;;;2.65;0.90;;;24.50;34.40;;;;;;2521318;54;20899;-83
2022/05/12 02:50:54;;;;;;;2.95;0.90;;;24.40;34.40;;;;;;2523991;54;20988;-87
2022/05/12 02:53:21;;;;;;;2.08;0.98;;;24.40;34.40;;;;;;2291383;55;20967;-84
2022/05/12 02:55:49;;;;;;;1.83;0.80;;;24.40;34.50;;;;;;2522122;55;20939;-86
2022/05/12 02:58:16;;;;;;;2.75;0.90;;;24.40;34.60;;;;;;2521831;55;20915;-87
2022/05/12 03:00:42;;;;;;;1.70;0.90;;;24.30;34.60;;;;;;2524097;54;20969;-85
2022/05/12 03:03:08;;;;;;;3.05;1.08;;;24.40;34.80;;;;;;2289288;55;21858;-85
2022/05/12 03:05:35;;;;;;;2.95;1.10;;;24.30;34.80;;;;;;2522469;54;20919;-84
2022/05/12 03:08:02;;;;;;;2.20;1.10;;;24.30;35.00;;;;;;2521477;55;20930;-88
2022/05/12 03:10:28;;;;;;;2.78;0.90;;;24.30;35.20;;;;;;2295955;55;22165;-85
2022/05/12 03:12:54;;;;;;;3.28;0.90;;;24.30;35.40;;;;;;2289617;55;20911;-86
2022/05/12 03:15:21;;;;;;;2.10;1.00;;;24.20;35.40;;;;;;2521604;55;20895;-83
2022/05/12 03:17:47;;;;;;;2.92;0.90;;;24.10;35.40;;;;;;2521567;54;21025;-84
2022/05/12 03:20:15;;;;;;;2.33;1.00;;;24.10;35.40;;;;;;2289018;55;21476;-87
2022/05/12 03:22:42;;;;;;;2.62;1.10;;;24.10;35.70;;;;;;2289120;55;20982;-87
2022/05/12 03:25:09;;;;;;;2.87;1.15;;;24.10;35.90;;;;;;2522067;54;20919;-84
2022/05/12 03:27:36;;;;;;;2.65;1.10;;;24.00;35.90;;;;;;2289304;55;20934;-83
2022/05/12 03:30:03;;;;;;;3.45;1.05;;;23.90;36.00;;;;;;2295765;55;20921;-85
2022/05/12 03:32:30;;;;;;;2.75;0.93;;;23.90;36.20;;;;;;2290865;55;20966;-86
2022/05/12 03:34:56;;;;;;;2.60;1.05;;;23.90;36.20;;;;;;2522448;55;21425;-87
2022/05/12 03:37:22;;;;;;;3.10;1.30;;;23.90;37.00;;;;;;2289549;55;21062;-86
2022/05/12 03:39:52;;;;;;;2.92;1.30;;;23.80;36.50;;;;;;2522805;54;20993;-86
2022/05/12 03:42:19;;;;;;;3.67;1.00;;;23.80;36.60;;;;;;2291564;55;21528;-89
2022/05/12 03:44:54;;;;;;;2.75;1.27;;;23.80;36.60;;;;;;2522243;54;20942;-87
2022/05/12 03:47:22;;;;;;;3.40;1.10;;;23.70;36.60;;;;;;2296035;55;21608;-84
2022/05/12 03:50:03;;;;;;;2.72;1.20;;;23.70;36.80;;;;;;2288920;55;20974;-87
2022/05/12 03:52:30;;;;;;;3.22;1.35;;;23.70;37.00;;;;;;2299410;55;20932;-87
2022/05/12 03:54:57;;;;;;;2.87;1.20;;;23.70;36.80;;;;;;2288539;55;20943;-86
2022/05/12 03:57:23;;;;;;;2.83;0.90;;;23.70;37.00;;;;;;2287940;55;20907;-87
2022/05/12 03:59:50;;;;;;;3.20;1.55;;;23.70;37.10;;;;;;2288166;55;21018;-87
2022/05/12 04:02:17;;;;;;;3.90;1.20;;;23.60;37.20;;;;;;2288776;55;20931;-83
2022/05/12 04:04:43;;;;;;;3.17;0.90;;;23.60;37.30;;;;;;2522014;54;20966;-85
2022/05/12 04:07:11;;;;;;;2.00;0.98;;;23.50;37.30;;;;;;2288567;55;20950;-86
2022/05/12 04:09:37;;;;;;;2.25;1.00;;;23.50;37.30;;;;;;2294937;55;21613;-87
2022/05/12 04:12:05;;;;;;;2.70;1.23;;;23.50;37.40;;;;;;2288847;55;20954;-88
2022/05/12 04:14:32;;;;;;;2.53;1.25;;;23.50;37.50;;;;;;2288774;55;21425;-89
2022/05/12 04:17:01;;;;;;;2.30;1.10;;;23.30;37.30;;;;;;2274386;55;20970;-85
2022/05/12 04:19:28;;;;;;;2.67;1.00;;;23.40;37.70;;;;;;2521104;55;20963;-85
2022/05/12 04:21:54;;;;;;;2.47;1.10;;;23.40;37.70;;;;;;2521516;54;21385;-86
2022/05/12 04:24:20;;;;;;;5.25;1.00;;;23.40;37.70;;;;;;2295940;55;21841;-85
2022/05/12 04:26:46;;;;;;;2.78;1.17;;;23.40;37.80;;;;;;2501299;54;21006;-85
2022/05/12 04:29:13;;;;;;;2.30;1.10;;;23.30;37.80;;;;;;2288542;55;20922;-85
2022/05/12 04:31:40;;;;;;;2.60;1.30;;;23.30;37.80;;;;;;2295965;55;20957;-87
2022/05/12 04:36:50;;;;;;;4.18;1.30;;;23.30;38.00;;;;;;2521817;55;20926;-84
2022/05/12 04:39:17;;;;;;;1.95;0.95;;;23.30;38.20;;;;;;2288313;55;20923;-86
2022/05/12 04:41:44;;;;;;;2.35;1.05;;;23.30;38.30;;;;;;2288745;55;20974;-83
2022/05/12 04:44:10;;;;;;;3.47;1.12;;;23.30;38.30;;;;;;2521563;55;20937;-86
2022/05/12 04:46:37;;;;;;;1.98;0.93;;;23.30;38.40;;;;;;2521802;54;20967;-86
2022/05/12 04:49:05;;;;;;;2.67;1.02;;;23.30;38.50;;;;;;2520622;54;20919;-84
2022/05/12 04:51:31;;;;;;;3.70;1.10;;;23.40;38.70;;;;;;2289174;55;21445;-85
2022/05/12 04:53:58;;;;;;;2.40;1.10;;;23.40;38.80;;;;;;2526613;54;20923;-84
2022/05/12 04:56:25;;;;;;;2.60;1.00;;;23.40;38.90;;;;;;2526408;55;21036;-85
2022/05/12 04:58:51;;;;;;;2.58;1.00;;;23.40;38.90;;;;;;2529830;54;21015;-87
2022/05/12 05:01:17;;;;;;;3.33;1.27;;;23.40;39.00;;;;;;2301092;55;20977;-86
2022/05/12 05:03:44;;;;;;;4.40;1.10;;;23.40;39.00;;;;;;2275682;55;20941;-86
2022/05/12 05:06:10;;;;;;;3.05;1.30;;;23.40;39.10;;;;;;2290515;55;20970;-89
2022/05/12 05:08:36;;;;;;;2.50;1.12;;;23.40;39.20;;;;;;2290142;55;21017;-86
2022/05/12 05:11:04;;;;;;;3.90;1.25;;;23.50;39.30;;;;;;2289419;55;20944;-84
2022/05/12 05:13:30;;;;;;;2.92;1.00;;;23.50;39.50;;;;;;2289259;55;21773;-87
2022/05/12 05:15:56;;;;;;;1.87;0.90;;;23.50;39.50;;;;;;2294191;55;21550;-85
2022/05/12 05:18:23;;;;;;;2.25;0.90;;;23.50;39.60;;;;;;2517517;54;20995;-85
2022/05/12 05:20:50;;;;;;;1.65;0.73;;;23.50;39.60;;;;;;2280876;55;20906;-86
2022/05/12 05:23:16;;;;;;;2.70;0.77;;;23.60;39.60;;;;;;2291563;55;21230;-87
2022/05/12 05:25:43;;;;;;;2.10;0.88;;;23.60;39.70;;;;;;2521756;55;20911;-85
2022/05/12 05:28:10;;;;;;;2.08;0.85;;;23.60;39.80;;;;;;2522122;54;20919;-89
2022/05/12 05:30:36;;;;;;;2.83;0.95;;;23.60;39.80;;;;;;2520580;54;20899;-85
2022/05/12 05:33:03;;;;;;;2.28;0.90;;;23.60;39.80;;;;;;2519398;54;20962;-88
2022/05/12 05:35:29;;;;;;;2.10;0.90;;;23.70;40.00;;;;;;2289138;55;21837;-88
2022/05/12 05:37:56;;;;;;;3.15;1.10;;;23.70;40.00;;;;;;2519980;54;21764;-88
2022/05/12 05:40:24;;;;;;;3.25;1.15;;;23.70;40.10;;;;;;2283559;55;20973;-84
2022/05/12 05:42:50;;;;;;;2.67;1.00;;;23.80;40.20;;;;;;2508748;54;21468;-86
2022/05/12 05:45:17;;;;;;;2.70;1.08;;;23.80;40.20;;;;;;2509058;55;20971;-86
2022/05/12 05:47:48;;;;;;;3.03;0.80;;;23.80;40.20;;;;;;2287991;55;20994;-86
2022/05/12 05:50:17;;;;;;;3.10;1.00;;;23.80;40.20;;;;;;2289404;55;20959;-87
2022/05/12 05:55:27;;;;;;;2.33;0.90;;;23.90;40.30;;;;;;2299157;55;20981;-85
2022/05/12 05:57:56;;;;;;;2.62;0.90;;;23.90;40.30;;;;;;2278578;55;21011;-84
2022/05/12 06:00:26;;;;;;;3.25;0.80;;;23.90;40.40;;;;;;2296818;55;20976;-86
2022/05/12 06:02:52;;;;;;;2.00;0.90;;;23.90;40.30;;;;;;2524180;54;20919;-83
2022/05/12 06:05:19;;;;;;;2.90;0.85;;;24.00;40.40;;;;;;2521683;54;20939;-85
2022/05/12 06:07:45;;;;;;;1.80;0.80;;;24.00;40.50;;;;;;2524929;54;21800;-85
2022/05/12 06:10:12;;;;;;;2.62;0.80;;;24.00;40.40;;;;;;2521657;55;21004;-84
2022/05/12 06:12:38;;;;;;;1.90;0.80;;;24.10;40.60;;;;;;2525136;54;20994;-83
2022/05/12 06:15:05;;;;;;;3.72;0.70;;;24.10;40.60;;;;;;2522176;54;20989;-84
2022/05/12 06:17:31;;;;;;;3.28;0.90;;;24.10;40.60;;;;;;2288767;55;20958;-84
2022/05/12 06:19:57;;;;;;;2.60;1.08;;;24.20;40.50;;;;;;2521558;54;20946;-87
2022/05/12 06:22:24;;;;;;;2.55;0.90;;;24.30;40.60;;;;;;2297861;55;20984;-86
2022/05/12 06:24:50;;;;;;;1.80;0.85;;;24.30;40.50;;;;;;2292167;55;20930;-85
2022/05/12 06:27:19;;;;;;;3.45;1.00;;;24.30;40.50;;;;;;2522697;55;20950;-83
2022/05/12 06:29:46;;;;;;;2.42;0.70;;;24.40;40.60;;;;;;2525855;54;20941;-86
2022/05/12 06:32:12;;;;;;;2.15;0.80;;;24.40;40.50;;;;;;2522999;54;21390;-86
2022/05/12 06:34:42;;;;;;;2.00;0.70;;;24.40;40.40;;;;;;2288867;55;20995;-82
2022/05/12 06:37:09;;;;;;;2.08;0.80;;;24.40;40.40;;;;;;2288207;55;22040;-83
2022/05/12 06:39:35;;;;;;;1.90;0.70;;;24.40;40.60;;;;;;2521138;54;20963;-84
2022/05/12 06:42:03;;;;;;;1.45;0.70;;;24.50;40.60;;;;;;2521995;54;21476;-85
2022/05/12 06:44:29;;;;;;;2.08;0.88;;;24.50;40.60;;;;;;2521771;55;21017;-85
2022/05/12 06:46:55;;;;;;;2.53;0.90;;;24.50;40.70;;;;;;2288304;55;20954;-83
2022/05/12 06:49:22;;;;;;;2.30;0.80;;;24.60;40.90;;;;;;2298403;55;21036;-85
2022/05/12 06:51:49;;;;;;;1.95;0.80;;;24.70;41.00;;;;;;2516840;54;20971;-84
2022/05/12 06:54:15;;;;;;;1.95;0.75;;;24.70;41.00;;;;;;2288131;55;20966;-85
2022/05/12 06:56:41;;;;;;;1.98;0.80;;;24.80;41.10;;;;;;2288670;55;20975;-84
2022/05/12 06:59:08;;;;;;;2.37;0.88;;;24.80;41.10;;;;;;2524825;54;21020;-84
2022/05/12 07:01:35;;;;;;;2.12;0.70;;;24.90;41.10;;;;;;2522186;54;20899;-84
2022/05/12 07:04:01;;;;;;;1.48;0.68;;;25.00;41.00;;;;;;2288774;55;20959;-85
2022/05/12 07:06:28;;;;;;;3.47;0.85;;;25.10;41.00;;;;;;2521043;54;20984;-85
2022/05/12 07:08:54;;;;;;;1.75;0.70;;;25.20;41.30;;;;;;2287756;55;21037;-86
2022/05/12 07:11:20;;;;;;;2.12;1.00;;;25.30;41.30;;;;;;2294658;55;20930;-83
2022/05/12 07:13:47;;;;;;;1.90;0.80;;;25.40;41.30;;;;;;2522748;54;20915;-85
2022/05/12 07:16:13;;;;;;;1.95;0.90;;;25.50;41.10;;;;;;2521654;54;20990;-84
2022/05/12 07:18:43;;;;;;;3.25;0.80;;;25.70;41.00;;;;;;2287754;55;21853;-84
2022/05/12 07:26:54;;;;;;;1.55;0.65;;;26.10;41.80;;;;;;2521082;54;20927;-82
2022/05/12 07:29:22;;;;;;;3.15;0.90;;;26.40;42.00;;;;;;2288496;55;20951;-85
2022/05/12 07:31:48;;;;;;;1.35;0.65;;;26.80;42.10;;;;;;2289307;55;21694;-85
2022/05/12 07:34:15;;;;;;;2.20;0.77;;;27.10;41.60;;;;;;2521129;54;21455;-85
2022/05/12 07:36:46;;;;;;;2.92;1.10;;;27.30;40.70;;;;;;2290039;55;21039;-86
2022/05/12 07:39:14;;;;;;;1.52;0.70;;;27.40;40.10;;;;;;2274501;55;20950;-85
2022/05/12 07:41:41;;;;;;;4.32;0.82;;;27.40;39.70;;;;;;2522424;54;20916;-84
2022/05/12 07:44:09;;;;;;;1.55;0.60;;;27.30;39.30;;;;;;2523081;54;21338;-84
2022/05/12 07:46:36;;;;;;;1.77;0.60;;;27.30;39.30;;;;;;2522643;54;20903;-84
2022/05/12 07:49:02;;;;;;;1.55;0.65;;;27.30;39.60;;;;;;2292329;55;20981;-84
2022/05/12 07:51:29;;;;;;;2.25;0.80;;;27.30;39.70;;;;;;2287211;55;21813;-85
2022/05/12 07:53:55;;;;;;;3.20;0.75;;;27.40;39.90;;;;;;2525556;54;21505;-85
2022/05/12 07:56:23;;;;;;;1.85;0.77;;;27.40;39.90;;;;;;2288359;55;21011;-85
2022/05/12 07:58:50;;;;;;;1.90;0.70;;;27.50;39.70;;;;;;2288489;55;20978;-83
2022/05/12 08:01:17;;;;;;;2.90;0.62;;;27.50;39.70;;;;;;2296468;55;21036;-84
2022/05/12 08:03:44;;;;;;;4.68;0.90;;;27.60;39.50;;;;;;2284309;55;20893;-85
2022/05/12 08:06:12;;;;;;;3.55;0.90;;;27.50;39.20;;;;;;2520986;54;21511;-87
2022/05/12 08:08:38;;;;;;;1.45;0.70;;;27.60;39.40;;;;;;2294771;55;20987;-83
2022/05/12 08:11:05;;;;;;;3.58;1.00;;;27.50;39.40;;;;;;2280297;55;20971;-83
2022/05/12 08:13:33;;;;;;;1.73;0.70;;;27.50;39.30;;;;;;2287699;55;20906;-85
2022/05/12 08:15:59;;;;;;;2.70;0.90;;;27.50;39.20;;;;;;2289892;55;21722;-84
2022/05/12 08:18:26;;;;;;;2.30;0.70;;;27.50;39.30;;;;;;2520708;54;21026;-83
2022/05/12 08:20:52;;;;;;;2.75;1.00;;;27.50;39.20;;;;;;2287874;55;21038;-85
2022/05/12 08:23:19;;;;;;;2.90;0.90;;;27.50;39.10;;;;;;2520181;54;21379;-83
2022/05/12 08:25:45;;;;;;;1.90;0.70;;;27.40;38.90;;;;;;2520328;54;20919;-86
2022/05/12 08:28:16;;;;;;;1.87;0.73;;;27.40;38.90;;;;;;2286769;55;21014;-84
2022/05/12 08:30:45;;;;;;;2.42;0.98;;;27.40;39.10;;;;;;2294522;55;21546;-86
2022/05/12 08:33:12;;;;;;;2.37;0.98;;;27.30;39.10;;;;;;2297218;55;21163;-84
2022/05/12 08:35:38;;;;;;;1.65;0.80;;;27.30;39.10;;;;;;2286101;55;21530;-81
2022/05/12 08:38:05;;;;;;;2.97;0.90;;;27.20;39.20;;;;;;2499127;55;20951;-85
2022/05/12 08:40:43;;;;;;;2.30;0.88;;;27.30;39.40;;;;;;2519894;55;21059;-85
2022/05/12 08:43:15;;;;;;;2.22;0.90;;;27.30;39.50;;;;;;2293220;55;21053;-85
2022/05/12 08:45:41;;;;;;;1.98;0.90;;;27.30;39.80;;;;;;2521635;54;21075;-87
2022/05/12 08:48:09;;;;;;;5.55;1.00;;;27.40;39.80;;;;;;2517347;54;21019;-84
2022/05/12 08:50:36;;;;;;;1.87;0.77;;;27.50;39.60;;;;;;2494711;55;21921;-85
2022/05/12 08:53:05;;;;;;;1.80;0.80;;;27.60;39.60;;;;;;2488192;54;20976;-86
2022/05/12 08:55:56;;;;;;;2.60;1.00;;;27.70;39.50;;;;;;2498854;54;21019;-84
2022/05/12 08:58:26;;;;;;;3.28;1.00;;;27.70;39.20;;;;;;2519822;54;21109;-82
2022/05/12 09:01:17;;;;;;;2.12;0.85;;;27.70;39.20;;;;;;2292887;55;20980;-84
2022/05/12 09:05:07;;;;;;;1.83;0.90;;;27.80;39.30;;;;;;2521188;54;21488;-83
2022/05/12 09:14:44;;;;;;;2.50;0.75;;;27.90;39.30;;;;;;2520240;55;21571;-84
2022/05/12 09:17:18;;;;;;;1.75;0.68;;;27.90;39.30;;;;;;2287984;55;21034;-84
2022/05/12 09:19:45;;;;;;;2.87;0.77;;;28.10;39.00;;;;;;2519927;54;21057;-86
2022/05/12 09:22:11;;;;;;;2.17;0.88;;;28.10;39.00;;;;;;2287287;55;20954;-85
2022/05/12 09:24:38;;;;;;;5.03;0.90;;;28.10;39.30;;;;;;2287273;55;20962;-84
2022/05/12 09:27:25;;;;;;;2.00;1.02;;;28.10;39.30;;;;;;2287820;55;21523;-85
2022/05/12 09:29:52;;;;;;;2.33;0.88;;;28.20;39.10;;;;;;2287287;55;20950;-83
2022/05/12 09:32:37;;;;;;;2.20;1.08;;;28.10;39.00;;;;;;2520124;54;20990;-85
2022/05/12 09:35:22;;;;;;;3.55;1.00;;;28.30;39.00;;;;;;2519986;55;20955;-84
2022/05/12 09:37:49;;;;;;;2.22;1.02;;;28.30;38.90;;;;;;2521655;55;20907;-84
2022/05/12 09:40:48;;;;;;;2.12;0.80;;;28.40;39.20;;;;;;2287871;55;21326;-83
2022/05/12 09:43:33;;;;;;;2.22;1.10;;;28.40;39.10;;;;;;2522214;54;20939;-84
2022/05/12 09:46:23;;;;;;;3.45;1.17;;;28.50;39.00;;;;;;2290171;55;20919;-83
2022/05/12 09:48:49;;;;;;;2.72;1.20;;;28.60;39.00;;;;;;2521945;54;21007;-83
2022/05/12 09:51:33;;;;;;;3.12;1.30;;;28.60;38.90;;;;;;2522452;54;20943;-84
2022/05/12 09:54:28;;;;;;;2.67;0.93;;;28.70;39.20;;;;;;2522565;54;20989;-83
2022/05/12 09:57:12;;;;;;;2.92;1.10;;;28.70;38.70;;;;;;2521973;55;20923;-85
2022/05/12 09:59:38;;;;;;;3.37;1.23;;;28.80;38.90;;;;;;2527485;54;20951;-83
2022/05/12 10:02:07;;;;;;;4.47;1.20;;;28.80;38.80;;;;;;2511494;54;20911;-84
2022/05/12 10:10:18;;;;;;;2.87;1.10;;;28.90;38.50;;;;;;2284928;55;20978;-83
2022/05/12 10:12:59;;;;;;;4.95;1.45;;;29.00;38.60;;;;;;2522438;54;20934;-84
2022/05/12 10:15:35;;;;;;;3.00;1.20;;;29.00;38.40;;;;;;2294871;55;21409;-83
2022/05/12 10:18:33;;;;;;;2.85;1.27;;;29.10;38.30;;;;;;2521115;54;20966;-82
2022/05/12 10:21:46;;;;;;;4.07;1.33;;;29.10;38.40;;;;;;2295550;55;20945;-80
2022/05/12 10:25:39;;;;;;;3.37;1.45;;;29.10;38.30;;;;;;2522866;54;21577;-82
2022/05/12 10:28:31;;;;;;;2.45;1.20;;;29.00;38.20;;;;;;2520189;54;20963;-85
2022/05/12 10:32:16;;;;;;;4.40;1.77;;;29.20;38.60;;;;;;2521350;54;20966;-84
2022/05/12 10:34:55;;;;;;;3.15;1.33;;;29.30;38.10;;;;;;2294238;55;20924;-83
2022/05/12 10:38:17;;;;;;;4.45;1.55;;;29.30;38.00;;;;;;2278881;55;21049;-83
2022/05/12 10:40:45;;;;;;;3.33;1.30;;;29.40;38.20;;;;;;2522245;54;21325;-82
2022/05/12 10:47:01;;;;;;;3.17;1.50;;;29.40;38.50;;;;;;2523023;55;20918;-81
2022/05/12 10:49:50;;;;;;;4.62;1.48;;;29.50;37.80;;;;;;2523733;55;20947;-84
2022/05/12 10:53:50;;;;;;;4.60;1.60;;;29.50;37.30;;;;;;2526551;54;20988;-83
2022/05/12 10:56:34;;;;;;;2.92;1.33;;;29.60;37.60;;;;;;2288211;55;20962;-82
2022/05/12 10:59:25;;;;;;;3.65;1.40;;;29.60;37.20;;;;;;2521245;54;21841;-83
2022/05/12 11:02:36;;;;;;;3.05;1.45;;;29.70;37.70;;;;;;2289467;55;21006;-83
2022/05/12 11:11:52;;;;;;;4.87;1.87;;;29.70;37.10;;;;;;2289700;55;20983;-83
2022/05/12 11:14:33;;;;;;;4.78;1.60;;;29.70;37.30;;;;;;2522099;54;20930;-84
2022/05/12 11:18:04;;;;;;;4.03;2.00;;;29.80;37.20;;;;;;2522313;54;20979;-85
2022/05/12 11:20:39;;;;;;;3.28;1.52;;;29.80;36.70;;;;;;2521614;54;20959;-82
2022/05/12 11:23:27;;;;;;;5.12;1.62;;;29.80;36.70;;;;;;2521726;54;20908;-82
2022/05/12 11:26:14;;;;;;;4.25;1.70;;;29.70;36.70;;;;;;2522545;55;20899;-85
2022/05/12 11:33:32;;;;;;;4.47;1.80;;;29.70;36.60;;;;;;2287033;55;20954;-86
2022/05/12 11:35:58;;;;;;;6.00;1.60;;;29.60;36.50;;;;;;2520189;54;20935;-83
2022/05/12 11:38:48;;;;;;;3.65;1.40;;;29.60;36.80;;;;;;2293763;55;20941;-80
2022/05/12 11:41:47;;;;;;;3.65;1.52;;;29.60;36.80;;;;;;2285979;55;21572;-79
2022/05/12 11:45:37;;;;;;;4.32;1.77;;;29.60;37.30;;;;;;2519239;55;21034;-80
2022/05/12 11:48:32;;;;;;;3.30;1.40;;;29.70;37.20;;;;;;2287685;55;20971;-79
2022/05/12 11:53:39;;;;;;;2.87;1.50;;;29.70;37.50;;;;;;2519113;55;21798;-79
2022/05/12 11:56:08;;;;;;;3.12;1.37;;;29.80;37.50;;;;;;2497479;55;21030;-79
2022/05/12 11:58:48;;;;;;;4.53;1.40;;;29.90;37.10;;;;;;2269952;55;20939;-77
2022/05/12 12:02:05;;;;;;;2.97;1.42;;;30.00;37.20;;;;;;2519153;55;20970;-80
2022/05/12 12:06:13;;;;;;;3.00;1.33;;;30.00;37.00;;;;;;2284813;55;21460;-79
2022/05/12 12:08:44;;;;;;;4.12;1.70;;;30.00;36.90;;;;;;2520767;54;21028;-78
2022/05/12 12:11:28;;;;;;;7.87;2.03;;;30.00;36.70;;;;;;2511123;54;21513;-86
2022/05/12 12:13:57;;;;;;;3.70;1.50;;;30.00;36.70;;;;;;2284068;55;20923;-79
2022/05/12 12:16:25;;;;;;;6.20;1.58;;;30.00;36.80;;;;;;2285100;55;21001;-79
2022/05/12 12:18:57;;;;;;;3.17;1.55;;;30.10;37.00;;;;;;2493347;55;1384280;-79
2022/05/12 12:21:43;;;;;;;3.55;1.73;;;30.10;37.30;;;;;;2285203;55;20958;-79
2022/05/12 12:24:28;;;;;;;4.28;1.85;;;30.20;36.60;;;;;;2286945;55;20998;-80
2022/05/12 12:26:58;;;;;;;4.45;1.87;;;30.30;36.70;;;;;;2284740;55;20923;-79
2022/05/12 12:33:17;;;;;;;4.57;1.77;;;30.30;36.50;;;;;;2517755;54;21039;-79
2022/05/12 12:36:03;;;;;;;3.42;1.35;;;30.40;36.40;;;;;;2292209;55;20992;-80
2022/05/12 12:39:20;;;;;;;4.05;1.70;;;30.50;36.50;;;;;;2522049;54;21585;-85
2022/05/12 12:41:47;;;;;;;5.07;1.40;;;30.50;36.60;;;;;;2280648;55;20976;-78
2022/05/12 12:44:22;;;;;;;3.12;1.40;;;30.60;36.70;;;;;;2285112;55;20966;-80
2022/05/12 12:47:16;;;;;;;3.30;1.83;;;30.70;36.70;;;;;;2285593;55;20926;-80
2022/05/12 12:50:42;;;;;;;4.85;1.65;;;30.70;36.70;;;;;;2284122;55;20986;-79
2022/05/12 12:56:31;;;;;;;3.50;1.65;;;30.90;36.00;;;;;;2286423;55;20923;-80
2022/05/12 12:59:59;;;;;;;3.33;1.80;;;30.90;35.90;;;;;;2285297;55;21015;-80
2022/05/12 13:02:35;;;;;;;2.75;1.55;;;30.90;35.70;;;;;;2271335;55;21078;-83
2022/05/12 13:05:06;;;;;;;3.62;1.60;;;30.90;35.70;;;;;;2286105;55;21362;-80
2022/05/12 13:07:34;;;;;;;4.37;1.87;;;30.90;35.80;;;;;;2286651;55;20922;-80
2022/05/12 13:10:03;;;;;;;3.15;1.70;;;30.90;35.60;;;;;;2286707;55;20930;-78
2022/05/12 13:12:29;;;;;;;5.65;2.05;;;30.90;35.70;;;;;;2289609;55;20930;-79
2022/05/12 13:15:00;;;;;;;4.80;1.80;;;30.90;35.70;;;;;;2288924;55;21872;-79
2022/05/12 13:17:37;;;;;;;3.70;1.90;;;31.00;35.90;;;;;;2271870;55;20955;-80
2022/05/12 13:20:09;;;;;;;3.15;1.80;;;31.00;35.90;;;;;;2286507;55;20934;-80
2022/05/12 13:23:39;;;;;;;3.25;1.80;;;31.00;35.60;;;;;;2520684;55;20923;-80
2022/05/12 13:26:06;;;;;;;3.25;1.45;;;31.00;35.70;;;;;;2285972;55;20922;-79
2022/05/12 13:28:36;;;;;;;3.10;1.62;;;31.00;35.50;;;;;;2519441;54;21015;-81
2022/05/12 13:31:31;;;;;;;4.00;1.65;;;31.00;35.40;;;;;;2285540;55;20986;-79
2022/05/12 13:34:50;;;;;;;4.00;1.52;;;31.00;35.40;;;;;;2519797;55;20931;-81
2022/05/12 13:37:20;;;;;;;3.95;1.73;;;31.00;35.20;;;;;;2519533;54;20946;-81
2022/05/12 13:39:50;;;;;;;4.28;1.73;;;31.00;35.40;;;;;;2519769;54;20907;-78
2022/05/12 13:43:04;;;;;;;3.37;1.63;;;31.00;35.30;;;;;;2285601;55;21039;-81
2022/05/12 13:45:31;;;;;;;3.72;1.92;;;31.00;35.30;;;;;;2270197;55;20951;-80
2022/05/12 13:47:58;;;;;;;4.30;2.05;;;30.90;35.20;;;;;;2497949;55;21031;-82
2022/05/12 13:50:35;;;;;;;3.35;1.73;;;30.90;35.00;;;;;;2519370;54;21022;-81
2022/05/12 13:53:01;;;;;;;4.57;1.90;;;30.90;34.80;;;;;;2523483;54;21863;-81
2022/05/12 13:55:32;;;;;;;4.15;1.90;;;30.80;35.00;;;;;;2285685;55;21540;-80
2022/05/12 13:58:17;;;;;;;2.90;1.60;;;30.80;35.10;;;;;;2270535;55;21487;-80
2022/05/12 14:00:49;;;;;;;3.00;1.60;;;30.90;35.20;;;;;;2522734;54;21068;-80
2022/05/12 14:03:36;;;;;;;3.42;1.70;;;30.90;35.30;;;;;;2519729;54;21762;-79
2022/05/12 14:06:19;;;;;;;3.28;1.65;;;31.00;35.60;;;;;;2286597;55;21867;-79
2022/05/12 14:08:46;;;;;;;4.37;1.45;;;31.10;35.40;;;;;;2288043;55;20934;-78